Time,TemperatureF,DewpointF,PressureIn,WindDirection,WindDirectionDegrees,WindSpeedMPH,WindSpeedGustMPH,Humidity,HourlyPrecipIn,Conditions,Clouds,dailyrainin,SoftwareType,DateUTC
2013-08-05 00:01:00,69.6,51.2,29.91,West,270,4.6,4.6,52,0.00,CLR,OVC,0.00,WeatherDisplay:10.37,2013-08-05 04:01:00,
2013-08-05 00:04:00,69.6,51.2,29.91,South,180,8.1,8.1,52,0.00,CLR,OVC,0.00,WeatherDisplay:10.37,2013-08-05 04:04:00,
2013-08-05 00:09:00,69.4,51.0,29.91,WSW,248,4.6,4.6,52,0.00,CLR,OVC,0.00,WeatherDisplay:10.37,2013-08-05 04:09:00,
2013-08-05 00:14:00,69.4,51.0,29.92,WSW,248,5.8,5.8,52,0.00,CLR,OVC,0.00,WeatherDisplay:10.37,2013-08-05 04:14:00,
2013-08-05 00:19:00,69.3,50.9,29.92,SSW,202,5.8,5.8,52,0.00,CLR,OVC,0.00,WeatherDisplay:10.37,2013-08-05 04:19:00,
2013-08-05 00:24:00,69.3,50.9,29.92,SW,225,6.9,6.9,52,0.00,CLR,OVC,0.00,WeatherDisplay:10.37,2013-08-05 04:24:00,
2013-08-05 00:29:00,69.1,50.7,29.92,NNW,338,4.7,4.7,52,0.00,CLR,OVC,0.00,WeatherDisplay:10.37,2013-08-05 04:29:00,
2013-08-05 00:35:00,68.9,50.5,29.92,NW,315,8.1,8.1,52,0.00,CLR,OVC,0.00,WeatherDisplay:10.37,2013-08-05 04:35:00,
2013-08-05 00:39:00,68.9,50.5,29.92,West,270,5.8,5.8,52,0.00,CLR,OVC,0.00,WeatherDisplay:10.37,2013-08-05 04:39:00,
2013-08-05 00:45:00,68.9,50.5,29.92,West,270,3.7,3.7,52,0.00,CLR,OVC,0.00,WeatherDisplay:10.37,2013-08-05 04:45:00,
2013-08-05 00:50:00,68.5,50.7,29.92,NW,315,5.8,5.8,53,0.00,CLR,OVC,0.00,WeatherDisplay:10.37,2013-08-05 04:50:00,
2013-08-05 00:55:00,68.4,50.6,29.92,West,270,3.7,3.7,53,0.00,CLR,OVC,0.00,WeatherDisplay:10.37,2013-08-05 04:55:00,
2013-08-05 01:00:00,68.2,50.9,29.92,WNW,292,4.6,4.6,54,0.00,CLR,OVC,0.00,WeatherDisplay:10.37,2013-08-05 05:00:00,
2013-08-05 01:05:00,68.0,50.7,29.91,SW,225,3.5,3.5,54,0.00,CLR,OVC,0.00,WeatherDisplay:10.37,2013-08-05 05:05:00,
2013-08-05 01:10:00,67.8,50.5,29.91,NW,315,4.6,4.6,54,0.00,CLR,OVC,0.00,WeatherDisplay:10.37,2013-08-05 05:10:00,
2013-08-05 01:15:00,67.8,51.0,29.92,West,270,5.8,5.8,55,0.00,CLR,OVC,0.00,WeatherDisplay:10.37,2013-08-05 05:15:00,
2013-08-05 01:24:00,67.8,51.0,29.92,SW,225,6.9,0.0,55,0.00,CLR,OVC,0.00,WeatherDisplay:10.37,2013-08-05 05:24:00,
2013-08-05 01:29:00,67.5,50.8,29.91,SW,225,5.8,5.8,55,0.00,CLR,OVC,0.00,WeatherDisplay:10.37,2013-08-05 05:29:00,
2013-08-05 01:34:00,67.3,51.1,29.91,NNE,22,3.5,3.5,56,0.00,CLR,OVC,0.00,WeatherDisplay:10.37,2013-08-05 05:34:00,
2013-08-05 01:39:00,67.1,50.9,29.92,WSW,248,5.3,5.3,56,0.00,CLR,OVC,0.00,WeatherDisplay:10.37,2013-08-05 05:39:00,
2013-08-05 01:44:00,67.1,50.9,29.92,West,270,2.3,2.3,56,0.00,CLR,OVC,0.00,WeatherDisplay:10.37,2013-08-05 05:44:00,
2013-08-05 01:49:00,67.1,50.9,29.92,SW,225,2.7,2.7,56,0.00,CLR,OVC,0.00,WeatherDisplay:10.37,2013-08-05 05:49:00,
2013-08-05 01:54:00,66.7,50.5,29.92,West,270,4.6,4.6,56,0.00,CLR,OVC,0.00,WeatherDisplay:10.37,2013-08-05 05:54:00,
2013-08-05 01:59:00,66.6,50.9,29.93,ENE,68,2.3,2.3,57,0.00,CLR,OVC,0.00,WeatherDisplay:10.37,2013-08-05 05:59:00,
2013-08-05 02:05:00,66.2,51.0,29.93,West,270,3.5,3.5,58,0.00,CLR,OVC,0.00,WeatherDisplay:10.37,2013-08-05 06:05:00,
2013-08-05 02:10:00,66.2,51.0,29.93,WSW,248,5.8,5.8,58,0.00,CLR,OVC,0.00,WeatherDisplay:10.37,2013-08-05 06:10:00,
2013-08-05 02:15:00,66.0,50.8,29.92,South,180,5.8,5.8,58,0.00,CLR,OVC,0.00,WeatherDisplay:10.37,2013-08-05 06:15:00,
2013-08-05 02:20:00,66.0,50.8,29.92,West,270,3.5,3.5,58,0.00,CLR,OVC,0.00,WeatherDisplay:10.37,2013-08-05 06:20:00,
2013-08-05 02:25:00,65.8,50.6,29.93,West,270,3.5,3.5,58,0.00,CLR,OVC,0.00,WeatherDisplay:10.37,2013-08-05 06:25:00,
2013-08-05 02:30:00,66.0,50.8,29.93,SW,225,5.8,5.8,58,0.00,CLR,OVC,0.00,WeatherDisplay:10.37,2013-08-05 06:30:00,
2013-08-05 02:35:00,66.0,51.3,29.93,SW,225,4.6,4.6,59,0.00,CLR,OVC,0.00,WeatherDisplay:10.37,2013-08-05 06:35:00,
2013-08-05 02:40:00,65.7,51.0,29.93,SW,225,4.6,4.6,59,0.00,CLR,OVC,0.00,WeatherDisplay:10.37,2013-08-05 06:40:00,
2013-08-05 02:45:00,65.5,50.8,29.93,WSW,248,4.6,4.6,59,0.00,CLR,OVC,0.00,WeatherDisplay:10.37,2013-08-05 06:45:00,
2013-08-05 02:51:00,65.5,50.8,29.94,SSW,202,3.5,3.5,59,0.00,CLR,OVC,0.00,WeatherDisplay:10.37,2013-08-05 06:51:00,
2013-08-05 02:56:00,65.5,51.2,29.94,SW,225,3.5,3.5,60,0.00,CLR,OVC,0.00,WeatherDisplay:10.37,2013-08-05 06:56:00,
2013-08-05 03:01:00,65.3,51.1,29.94,West,270,3.5,3.5,60,0.00,CLR,OVC,0.00,WeatherDisplay:10.37,2013-08-05 07:01:00,
2013-08-05 03:06:00,65.1,50.9,29.94,NNW,338,2.7,2.7,60,0.00,CLR,OVC,0.00,WeatherDisplay:10.37,2013-08-05 07:06:00,
2013-08-05 03:11:00,64.9,51.1,29.94,West,270,3.2,3.2,61,0.00,CLR,OVC,0.00,WeatherDisplay:10.37,2013-08-05 07:11:00,
2013-08-05 03:16:00,64.9,51.1,29.94,SW,225,2.3,2.3,61,0.00,CLR,OVC,0.00,WeatherDisplay:10.37,2013-08-05 07:16:00,
2013-08-05 03:21:00,64.8,51.0,29.94,SW,225,4.6,4.6,61,0.00,CLR,OVC,0.00,WeatherDisplay:10.37,2013-08-05 07:21:00,
2013-08-05 03:27:00,64.8,51.0,29.94,SW,225,4.6,4.6,61,0.00,CLR,OVC,0.00,WeatherDisplay:10.37,2013-08-05 07:27:00,
2013-08-05 03:32:00,64.8,51.0,29.94,West,270,4.7,4.7,61,0.00,CLR,OVC,0.00,WeatherDisplay:10.37,2013-08-05 07:32:00,
2013-08-05 03:37:00,64.8,51.0,29.95,SW,225,6.3,6.3,61,0.00,CLR,OVC,0.00,WeatherDisplay:10.37,2013-08-05 07:37:00,
2013-08-05 03:42:00,64.8,51.0,29.95,West,270,2.7,2.7,61,0.00,CLR,OVC,0.00,WeatherDisplay:10.37,2013-08-05 07:42:00,
2013-08-05 03:47:00,64.8,51.0,29.95,West,270,3.5,3.5,61,0.00,CLR,OVC,0.00,WeatherDisplay:10.37,2013-08-05 07:47:00,
2013-08-05 03:52:00,64.8,51.5,29.95,South,180,2.3,2.3,62,0.00,CLR,OVC,0.00,WeatherDisplay:10.37,2013-08-05 07:52:00,
2013-08-05 03:57:00,64.8,51.5,29.95,SW,225,5.8,5.8,62,0.00,CLR,OVC,0.00,WeatherDisplay:10.37,2013-08-05 07:57:00,
2013-08-05 04:02:00,64.6,51.3,29.95,West,270,7.8,7.8,62,0.00,CLR,OVC,0.00,WeatherDisplay:10.37,2013-08-05 08:02:00,
2013-08-05 04:07:00,64.6,51.3,29.95,South,180,4.6,4.7,62,0.00,CLR,OVC,0.00,WeatherDisplay:10.37,2013-08-05 08:07:00,
2013-08-05 04:12:00,64.6,51.3,29.95,WNW,292,5.8,5.8,62,0.00,CLR,OVC,0.00,WeatherDisplay:10.37,2013-08-05 08:12:00,
2013-08-05 04:18:00,64.6,51.7,29.95,West,270,4.6,4.6,63,0.00,CLR,OVC,0.00,WeatherDisplay:10.37,2013-08-05 08:18:00,
2013-08-05 04:19:00,64.6,51.7,29.95,SW,225,5.8,5.8,63,0.00,CLR,OVC,0.00,WeatherDisplay:10.37,2013-08-05 08:19:00,
2013-08-05 05:32:00,64.6,51.7,29.95,SW,225,3.5,3.5,63,0.00,CLR,OVC,0.00,WeatherDisplay:10.37,2013-08-05 09:32:00,
2013-08-05 05:37:00,63.5,51.9,29.97,WSW,248,5.8,5.8,66,0.00,CLR,OVC,0.00,WeatherDisplay:10.37,2013-08-05 09:37:00,
2013-08-05 05:43:00,63.5,52.3,29.97,SSW,202,4.6,4.6,67,0.00,CLR,OVC,0.00,WeatherDisplay:10.37,2013-08-05 09:43:00,
2013-08-05 05:49:00,63.3,52.2,29.97,SSW,202,4.6,4.6,67,0.00,CLR,OVC,0.00,WeatherDisplay:10.37,2013-08-05 09:49:00,
2013-08-05 05:54:00,63.3,52.2,29.97,SW,225,2.7,2.7,67,0.00,CLR,OVC,0.00,WeatherDisplay:10.37,2013-08-05 09:54:00,
2013-08-05 05:59:00,63.0,51.9,29.97,West,270,3.5,3.5,67,0.00,CLR,OVC,0.00,WeatherDisplay:10.37,2013-08-05 09:59:00,
2013-08-05 06:04:00,63.0,52.3,29.98,West,270,4.2,4.2,68,0.00,CLR,OVC,0.00,WeatherDisplay:10.37,2013-08-05 10:04:00,
2013-08-05 06:10:00,63.0,52.3,29.98,SSW,202,3.7,3.7,68,0.00,CLR,OVC,0.00,WeatherDisplay:10.37,2013-08-05 10:10:00,
2013-08-05 06:15:00,62.8,52.1,29.97,SW,225,3.2,3.2,68,0.00,CLR,OVC,0.00,WeatherDisplay:10.37,2013-08-05 10:15:00,
2013-08-05 06:20:00,63.0,52.3,29.97,South,180,0.0,0.0,68,0.00,CLR,OVC,0.00,WeatherDisplay:10.37,2013-08-05 10:20:00,
2013-08-05 06:25:00,62.8,52.5,29.98,SSW,202,2.3,2.3,69,0.00,CLR,OVC,0.00,WeatherDisplay:10.37,2013-08-05 10:25:00,
2013-08-05 06:30:00,62.8,52.5,29.98,West,270,7.3,7.3,69,0.00,CLR,OVC,0.00,WeatherDisplay:10.37,2013-08-05 10:30:00,
2013-08-05 06:35:00,63.1,52.4,29.98,WNW,292,6.9,6.9,68,0.00,CLR,OVC,0.00,WeatherDisplay:10.37,2013-08-05 10:35:00,
2013-08-05 06:40:00,63.1,52.4,29.98,WNW,292,6.9,6.9,68,0.00,CLR,OVC,0.00,WeatherDisplay:10.37,2013-08-05 10:40:00,
2013-08-05 06:45:00,63.1,52.4,29.98,West,270,4.2,4.2,68,0.00,CLR,OVC,0.00,WeatherDisplay:10.37,2013-08-05 10:45:00,
2013-08-05 06:50:00,63.1,52.4,29.98,SW,225,3.5,3.5,68,0.00,CLR,OVC,0.00,WeatherDisplay:10.37,2013-08-05 10:50:00,
2013-08-05 06:55:00,63.3,52.6,29.98,West,270,3.5,3.5,68,0.00,CLR,OVC,0.00,WeatherDisplay:10.37,2013-08-05 10:55:00,
2013-08-05 07:00:00,63.5,52.7,29.99,NW,315,2.7,2.7,68,0.00,CLR,OVC,0.00,WeatherDisplay:10.37,2013-08-05 11:00:00,
2013-08-05 07:07:00,63.9,53.1,29.99,NNW,338,4.2,4.2,68,0.00,CLR,OVC,0.00,WeatherDisplay:10.37,2013-08-05 11:07:00,
2013-08-05 07:13:00,64.0,53.2,29.99,WNW,292,2.3,2.3,68,0.00,CLR,OVC,0.00,WeatherDisplay:10.37,2013-08-05 11:13:00,
2013-08-05 07:18:00,64.2,53.4,29.99,WSW,248,3.7,3.7,68,0.00,CLR,OVC,0.00,WeatherDisplay:10.37,2013-08-05 11:18:00,
2013-08-05 07:23:00,64.6,53.8,29.99,WNW,292,4.2,4.2,68,0.00,CLR,OVC,0.00,WeatherDisplay:10.37,2013-08-05 11:23:00,
2013-08-05 07:28:00,64.9,53.7,29.99,ENE,68,6.3,6.3,67,0.00,CLR,OVC,0.00,WeatherDisplay:10.37,2013-08-05 11:28:00,
2013-08-05 07:33:00,65.1,53.5,29.99,NW,315,5.8,5.8,66,0.03,RA,OVC,0.03,WeatherDisplay:10.37,2013-08-05 11:33:00,
2013-08-05 07:38:00,65.3,53.6,29.99,NNW,338,2.7,2.7,66,0.03,RA,OVC,0.03,WeatherDisplay:10.37,2013-08-05 11:38:00,
2013-08-05 07:43:00,66.4,54.3,29.99,NW,315,4.7,4.7,65,0.03,CLR,OVC,0.03,WeatherDisplay:10.37,2013-08-05 11:43:00,
2013-08-05 07:49:00,66.9,53.9,29.99,NNW,338,5.8,5.8,63,0.03,CLR,OVC,0.03,WeatherDisplay:10.37,2013-08-05 11:49:00,
2013-08-05 07:54:00,67.1,53.6,29.99,North,360,4.6,4.6,62,0.03,CLR,OVC,0.03,WeatherDisplay:10.37,2013-08-05 11:54:00,
2013-08-05 07:59:00,67.1,53.2,29.99,WNW,292,4.6,4.6,61,0.03,CLR,OVC,0.03,WeatherDisplay:10.37,2013-08-05 11:59:00,
2013-08-05 08:04:00,67.1,53.2,29.99,NNW,338,5.8,5.8,61,0.03,CLR,OVC,0.03,WeatherDisplay:10.37,2013-08-05 12:04:00,
2013-08-05 08:09:00,67.3,53.4,29.99,SW,225,3.5,3.5,61,0.03,CLR,OVC,0.03,WeatherDisplay:10.37,2013-08-05 12:09:00,
2013-08-05 08:14:00,67.6,52.8,29.99,West,270,6.9,6.9,59,0.03,CLR,OVC,0.03,WeatherDisplay:10.37,2013-08-05 12:14:00,
2013-08-05 08:19:00,67.6,51.8,29.99,SSE,158,4.6,4.6,57,0.03,CLR,OVC,0.03,WeatherDisplay:10.37,2013-08-05 12:19:00,
2013-08-05 08:25:00,67.8,52.0,30.00,North,360,4.6,4.6,57,0.03,CLR,OVC,0.03,WeatherDisplay:10.37,2013-08-05 12:25:00,
2013-08-05 08:29:00,68.0,52.2,30.00,West,270,4.6,4.6,57,0.03,CLR,OVC,0.03,WeatherDisplay:10.37,2013-08-05 12:29:00,
2013-08-05 08:35:00,68.0,51.2,30.00,ESE,112,6.8,6.8,55,0.00,CLR,OVC,0.03,WeatherDisplay:10.37,2013-08-05 12:35:00,
2013-08-05 08:40:00,68.0,50.2,30.00,ENE,68,9.2,9.2,53,0.00,CLR,OVC,0.03,WeatherDisplay:10.37,2013-08-05 12:40:00,
2013-08-05 08:45:00,68.2,48.8,30.00,West,270,6.9,6.9,50,0.00,CLR,OVC,0.03,WeatherDisplay:10.37,2013-08-05 12:45:00,
2013-08-05 08:52:00,68.5,48.6,30.00,NNE,22,5.8,5.8,49,0.00,CLR,OVC,0.03,WeatherDisplay:10.37,2013-08-05 12:52:00,
2013-08-05 08:57:00,69.1,48.6,30.00,West,270,8.1,8.1,48,0.00,CLR,OVC,0.03,WeatherDisplay:10.37,2013-08-05 12:57:00,
2013-08-05 09:02:00,69.8,49.2,30.00,West,270,5.8,5.8,48,0.00,CLR,OVC,0.03,WeatherDisplay:10.37,2013-08-05 13:02:00,
2013-08-05 09:07:00,70.5,48.7,30.00,NE,45,5.8,5.8,46,0.00,CLR,OVC,0.03,WeatherDisplay:10.37,2013-08-05 13:07:00,
2013-08-05 09:12:00,70.3,49.1,30.00,NNE,22,5.8,5.8,47,0.00,CLR,OVC,0.03,WeatherDisplay:10.37,2013-08-05 13:12:00,
2013-08-05 09:17:00,70.3,48.5,30.00,ESE,112,6.9,6.9,46,0.00,CLR,OVC,0.03,WeatherDisplay:10.37,2013-08-05 13:17:00,
2013-08-05 09:23:00,70.3,47.9,30.00,WSW,248,5.8,5.8,45,0.00,CLR,OVC,0.03,WeatherDisplay:10.37,2013-08-05 13:23:00,
2013-08-05 09:28:00,70.9,49.1,30.00,NNE,22,9.2,9.2,46,0.00,CLR,OVC,0.03,WeatherDisplay:10.37,2013-08-05 13:28:00,
2013-08-05 09:33:00,70.7,48.9,30.00,NNE,22,4.6,4.6,46,0.00,CLR,OVC,0.03,WeatherDisplay:10.37,2013-08-05 13:33:00,
2013-08-05 09:38:00,71.1,49.3,30.01,East,90,5.8,5.8,46,0.00,CLR,OVC,0.03,WeatherDisplay:10.37,2013-08-05 13:38:00,
2013-08-05 09:43:00,70.9,47.9,30.01,West,270,8.1,8.1,44,0.00,CLR,OVC,0.03,WeatherDisplay:10.37,2013-08-05 13:43:00,
2013-08-05 09:49:00,70.9,47.9,30.01,West,270,4.2,4.2,44,0.00,CLR,OVC,0.03,WeatherDisplay:10.37,2013-08-05 13:49:00,
2013-08-05 09:54:00,71.4,48.9,30.01,West,270,4.2,4.2,45,0.00,CLR,OVC,0.03,WeatherDisplay:10.37,2013-08-05 13:54:00,
2013-08-05 10:00:00,71.4,48.3,30.01,WSW,248,11.5,11.5,44,0.00,CLR,OVC,0.03,WeatherDisplay:10.37,2013-08-05 14:00:00,
2013-08-05 10:04:00,71.4,49.5,30.01,WNW,292,6.3,6.3,46,0.00,CLR,OVC,0.03,WeatherDisplay:10.37,2013-08-05 14:04:00,
2013-08-05 10:10:00,71.6,49.7,30.01,NNW,338,8.1,8.1,46,0.00,CLR,OVC,0.03,WeatherDisplay:10.37,2013-08-05 14:10:00,
2013-08-05 10:15:00,72.5,49.9,30.01,SW,225,5.8,5.8,45,0.00,CLR,OVC,0.03,WeatherDisplay:10.37,2013-08-05 14:15:00,
2013-08-05 10:20:00,72.5,49.9,30.01,NNW,338,6.9,6.9,45,0.00,CLR,OVC,0.03,WeatherDisplay:10.37,2013-08-05 14:20:00,
2013-08-05 10:25:00,72.7,49.5,30.01,West,270,5.8,5.8,44,0.00,CLR,OVC,0.03,WeatherDisplay:10.37,2013-08-05 14:25:00,
2013-08-05 10:31:00,72.7,48.9,30.01,West,270,6.9,6.9,43,0.00,CLR,OVC,0.03,WeatherDisplay:10.37,2013-08-05 14:31:00,
2013-08-05 10:36:00,72.9,48.5,30.01,West,270,8.1,8.1,42,0.00,CLR,OVC,0.03,WeatherDisplay:10.37,2013-08-05 14:36:00,
2013-08-05 10:43:00,72.7,48.3,30.01,South,180,5.8,5.8,42,0.00,CLR,OVC,0.03,WeatherDisplay:10.37,2013-08-05 14:43:00,
2013-08-05 10:48:00,72.9,47.8,30.01,West,270,6.9,6.9,41,0.00,CLR,OVC,0.03,WeatherDisplay:10.37,2013-08-05 14:48:00,
2013-08-05 10:52:00,73.6,47.1,30.01,SSE,158,3.5,3.5,39,0.00,CLR,OVC,0.03,WeatherDisplay:10.37,2013-08-05 14:52:00,
2013-08-05 10:58:00,73.8,47.3,30.01,NNE,22,6.9,6.9,39,0.00,CLR,OVC,0.03,WeatherDisplay:10.37,2013-08-05 14:58:00,
2013-08-05 11:03:00,74.1,46.9,30.01,NE,45,8.1,8.1,38,0.00,CLR,OVC,0.03,WeatherDisplay:10.37,2013-08-05 15:03:00,
2013-08-05 11:08:00,73.6,45.7,30.01,NNE,22,3.7,3.7,37,0.00,CLR,OVC,0.03,WeatherDisplay:10.37,2013-08-05 15:08:00,
2013-08-05 11:13:00,74.1,46.2,30.01,SSE,158,8.1,8.1,37,0.00,CLR,OVC,0.03,WeatherDisplay:10.37,2013-08-05 15:13:00,
2013-08-05 11:18:00,74.3,47.0,30.01,ESE,112,9.2,9.2,38,0.00,CLR,OVC,0.03,WeatherDisplay:10.37,2013-08-05 15:18:00,
2013-08-05 11:23:00,74.1,46.9,30.01,ENE,68,8.1,8.1,38,0.00,CLR,OVC,0.03,WeatherDisplay:10.37,2013-08-05 15:23:00,
2013-08-05 11:29:00,73.6,45.7,30.01,WNW,292,5.8,5.8,37,0.00,CLR,OVC,0.03,WeatherDisplay:10.37,2013-08-05 15:29:00,
2013-08-05 11:34:00,73.8,45.9,30.01,East,90,5.8,5.8,37,0.00,CLR,OVC,0.03,WeatherDisplay:10.37,2013-08-05 15:34:00,
2013-08-05 11:39:00,74.1,46.9,30.01,SW,225,5.8,5.8,38,0.00,CLR,OVC,0.03,WeatherDisplay:10.37,2013-08-05 15:39:00,
2013-08-05 11:44:00,74.7,46.7,30.01,North,360,5.8,5.8,37,0.00,CLR,OVC,0.03,WeatherDisplay:10.37,2013-08-05 15:44:00,
2013-08-05 11:50:00,75.0,46.2,30.01,ESE,112,8.1,8.1,36,0.00,CLR,OVC,0.03,WeatherDisplay:10.37,2013-08-05 15:50:00,
2013-08-05 11:55:00,74.7,46.0,30.01,NW,315,5.8,6.0,36,0.00,CLR,OVC,0.03,WeatherDisplay:10.37,2013-08-05 15:55:00,
2013-08-05 12:00:00,74.8,46.1,30.01,NW,315,5.8,5.8,36,0.00,CLR,OVC,0.03,WeatherDisplay:10.37,2013-08-05 16:00:00,
2013-08-05 12:06:00,75.4,46.6,30.00,North,360,5.8,5.8,36,0.00,CLR,OVC,0.03,WeatherDisplay:10.37,2013-08-05 16:06:00,
2013-08-05 12:12:00,75.9,46.3,30.00,ESE,112,3.5,3.5,35,0.00,CLR,OVC,0.03,WeatherDisplay:10.37,2013-08-05 16:12:00,
2013-08-05 12:17:00,75.2,46.4,30.00,SSW,202,4.6,4.6,36,0.00,CLR,OVC,0.03,WeatherDisplay:10.37,2013-08-05 16:17:00,
2013-08-05 12:22:00,73.9,45.3,30.00,ESE,112,5.8,5.8,36,0.00,CLR,OVC,0.03,WeatherDisplay:10.37,2013-08-05 16:22:00,
2013-08-05 12:27:00,74.3,46.3,30.00,ENE,68,5.8,5.8,37,0.00,CLR,OVC,0.03,WeatherDisplay:10.37,2013-08-05 16:27:00,
2013-08-05 12:33:00,75.4,45.8,30.00,NNE,22,5.8,5.8,35,0.00,CLR,OVC,0.03,WeatherDisplay:10.37,2013-08-05 16:33:00,
2013-08-05 12:38:00,75.4,45.8,30.00,North,360,8.1,8.1,35,0.00,CLR,OVC,0.03,WeatherDisplay:10.37,2013-08-05 16:38:00,
2013-08-05 12:43:00,75.2,46.4,30.00,WNW,292,5.8,5.8,36,0.00,CLR,OVC,0.03,WeatherDisplay:10.37,2013-08-05 16:43:00,
2013-08-05 12:48:00,75.6,46.0,30.00,NNE,22,8.1,8.1,35,0.00,CLR,OVC,0.03,WeatherDisplay:10.37,2013-08-05 16:48:00,
2013-08-05 12:53:00,76.1,46.5,30.00,West,270,8.1,8.1,35,0.00,CLR,OVC,0.03,WeatherDisplay:10.37,2013-08-05 16:53:00,
2013-08-05 12:59:00,75.9,46.3,30.00,West,270,5.8,5.8,35,0.00,CLR,OVC,0.03,WeatherDisplay:10.37,2013-08-05 16:59:00,
2013-08-05 13:04:00,77.0,46.5,29.99,WNW,292,6.8,6.8,34,0.00,CLR,OVC,0.03,WeatherDisplay:10.37,2013-08-05 17:04:00,
2013-08-05 13:09:00,76.5,45.2,29.99,West,270,6.8,6.8,33,0.00,CLR,OVC,0.03,WeatherDisplay:10.37,2013-08-05 17:09:00,
2013-08-05 13:14:00,77.4,46.8,29.98,West,270,6.9,6.9,34,0.00,CLR,OVC,0.03,WeatherDisplay:10.37,2013-08-05 17:14:00,
2013-08-05 13:20:00,76.8,46.3,29.98,West,270,6.9,6.9,34,0.00,CLR,OVC,0.03,WeatherDisplay:10.37,2013-08-05 17:20:00,
2013-08-05 13:25:00,77.7,45.5,29.98,NNE,22,4.6,4.6,32,0.00,CLR,OVC,0.03,WeatherDisplay:10.37,2013-08-05 17:25:00,
2013-08-05 13:30:00,77.7,45.5,29.98,SW,225,3.5,3.5,32,0.00,CLR,OVC,0.03,WeatherDisplay:10.37,2013-08-05 17:30:00,
2013-08-05 13:35:00,77.0,44.9,29.98,NNW,338,5.8,5.8,32,0.00,CLR,OVC,0.03,WeatherDisplay:10.37,2013-08-05 17:35:00,
2013-08-05 13:42:00,77.4,44.4,29.98,West,270,5.8,5.8,31,0.00,CLR,OVC,0.03,WeatherDisplay:10.37,2013-08-05 17:42:00,
2013-08-05 13:47:00,77.9,44.8,29.97,West,270,6.3,6.3,31,0.00,CLR,OVC,0.03,WeatherDisplay:10.37,2013-08-05 17:47:00,
2013-08-05 13:53:00,77.4,45.2,29.97,West,270,5.8,5.8,32,0.00,CLR,OVC,0.03,WeatherDisplay:10.37,2013-08-05 17:53:00,
2013-08-05 13:58:00,78.6,45.4,29.97,SW,225,6.3,6.3,31,0.00,CLR,OVC,0.03,WeatherDisplay:10.37,2013-08-05 17:58:00,
2013-08-05 14:03:00,78.4,45.3,29.97,WSW,248,5.8,5.8,31,0.00,CLR,OVC,0.03,WeatherDisplay:10.37,2013-08-05 18:03:00,
2013-08-05 14:08:00,78.8,45.6,29.97,NW,315,3.7,3.7,31,0.00,CLR,OVC,0.03,WeatherDisplay:10.37,2013-08-05 18:08:00,
2013-08-05 14:13:00,79.3,46.0,29.97,West,270,6.9,6.9,31,0.00,CLR,OVC,0.03,WeatherDisplay:10.37,2013-08-05 18:13:00,
2013-08-05 14:18:00,77.7,45.5,29.97,ESE,112,4.6,4.6,32,0.00,CLR,OVC,0.03,WeatherDisplay:10.37,2013-08-05 18:18:00,
2013-08-05 14:23:00,78.8,46.4,29.97,West,270,9.2,9.2,32,0.00,CLR,OVC,0.03,WeatherDisplay:10.37,2013-08-05 18:23:00,
2013-08-05 14:29:00,79.0,44.9,29.97,NNE,22,8.1,8.1,30,0.00,CLR,OVC,0.03,WeatherDisplay:10.37,2013-08-05 18:29:00,
2013-08-05 14:34:00,78.3,45.2,29.97,West,270,5.8,5.8,31,0.00,CLR,OVC,0.03,WeatherDisplay:10.37,2013-08-05 18:34:00,
2013-08-05 14:39:00,78.8,44.7,29.97,West,270,5.8,5.8,30,0.00,CLR,OVC,0.03,WeatherDisplay:10.37,2013-08-05 18:39:00,
2013-08-05 14:44:00,80.1,46.7,29.97,NNE,22,5.8,5.8,31,0.00,CLR,OVC,0.03,WeatherDisplay:10.37,2013-08-05 18:44:00,
2013-08-05 14:49:00,78.8,45.6,29.96,West,270,5.8,5.8,31,0.00,CLR,OVC,0.03,WeatherDisplay:10.37,2013-08-05 18:49:00,
2013-08-05 14:54:00,78.6,45.4,29.96,East,90,4.6,4.6,31,0.00,CLR,OVC,0.03,WeatherDisplay:10.37,2013-08-05 18:54:00,
2013-08-05 14:59:00,78.4,46.1,29.96,WSW,248,5.8,5.8,32,0.00,CLR,OVC,0.03,WeatherDisplay:10.37,2013-08-05 18:59:00,
2013-08-05 15:04:00,79.2,45.9,29.97,SSW,202,4.6,4.6,31,0.00,CLR,OVC,0.03,WeatherDisplay:10.37,2013-08-05 19:04:00,
2013-08-05 15:18:00,79.2,45.9,29.97,WNW,292,9.2,0.0,31,0.00,CLR,OVC,0.03,WeatherDisplay:10.37,2013-08-05 19:18:00,
2013-08-05 15:23:00,79.0,45.8,29.96,NE,45,4.6,4.6,31,0.00,RA,OVC,0.03,WeatherDisplay:10.37,2013-08-05 19:23:00,
2013-08-05 15:28:00,79.2,47.6,29.96,ESE,112,4.2,4.2,33,0.00,RA,OVC,0.03,WeatherDisplay:10.37,2013-08-05 19:28:00,
2013-08-05 15:34:00,79.0,46.6,29.96,NW,315,5.8,5.8,32,0.00,CLR,OVC,0.03,WeatherDisplay:10.37,2013-08-05 19:34:00,
2013-08-05 15:39:00,79.2,45.9,29.95,West,270,4.7,4.7,31,0.00,CLR,OVC,0.03,WeatherDisplay:10.37,2013-08-05 19:39:00,
2013-08-05 15:44:00,79.7,47.2,29.95,WSW,248,9.2,9.2,32,0.00,CLR,OVC,0.03,WeatherDisplay:10.37,2013-08-05 19:44:00,
2013-08-05 15:49:00,79.5,47.9,29.95,ENE,68,5.3,5.3,33,0.00,CLR,OVC,0.03,WeatherDisplay:10.37,2013-08-05 19:49:00,
2013-08-05 15:54:00,79.7,48.0,29.95,NNW,338,5.8,5.8,33,0.00,CLR,OVC,0.03,WeatherDisplay:10.37,2013-08-05 19:54:00,
2013-08-05 16:00:00,80.1,48.4,29.95,North,360,5.8,5.8,33,0.00,CLR,OVC,0.03,WeatherDisplay:10.37,2013-08-05 20:00:00,
2013-08-05 16:05:00,79.7,48.0,29.95,West,270,4.6,4.6,33,0.00,CLR,OVC,0.03,WeatherDisplay:10.37,2013-08-05 20:05:00,
2013-08-05 16:10:00,79.3,47.7,29.95,West,270,4.6,4.6,33,0.00,CLR,OVC,0.03,WeatherDisplay:10.37,2013-08-05 20:10:00,
2013-08-05 16:15:00,79.7,48.0,29.95,SW,225,3.5,3.5,33,0.00,CLR,OVC,0.03,WeatherDisplay:10.37,2013-08-05 20:15:00,
2013-08-05 16:21:00,80.4,48.7,29.95,West,270,5.3,5.3,33,0.00,CLR,OVC,0.03,WeatherDisplay:10.37,2013-08-05 20:21:00,
2013-08-05 16:26:00,81.3,49.4,29.94,NNE,22,6.3,6.3,33,0.00,CLR,OVC,0.03,WeatherDisplay:10.37,2013-08-05 20:26:00,
2013-08-05 16:31:00,80.1,48.4,29.94,SW,225,6.9,6.9,33,0.00,CLR,OVC,0.03,WeatherDisplay:10.37,2013-08-05 20:31:00,
2013-08-05 16:36:00,79.9,49.0,29.94,ENE,68,2.3,2.3,34,0.00,CLR,OVC,0.03,WeatherDisplay:10.37,2013-08-05 20:36:00,
2013-08-05 16:42:00,80.4,49.5,29.94,West,270,5.8,5.8,34,0.00,CLR,OVC,0.03,WeatherDisplay:10.37,2013-08-05 20:42:00,
2013-08-05 16:47:00,79.7,48.8,29.94,NW,315,4.6,4.6,34,0.00,CLR,OVC,0.03,WeatherDisplay:10.37,2013-08-05 20:47:00,
2013-08-05 16:52:00,80.4,48.7,29.94,NNW,338,3.5,3.5,33,0.00,CLR,OVC,0.03,WeatherDisplay:10.37,2013-08-05 20:52:00,
2013-08-05 16:58:00,80.8,49.8,29.94,NW,315,5.8,5.8,34,0.00,CLR,OVC,0.03,WeatherDisplay:10.37,2013-08-05 20:58:00,
2013-08-05 17:03:00,81.0,50.0,29.94,SSE,158,3.5,3.5,34,0.00,CLR,OVC,0.03,WeatherDisplay:10.37,2013-08-05 21:03:00,
2013-08-05 17:08:00,81.1,48.4,29.94,WSW,248,5.8,5.8,32,0.00,CLR,OVC,0.03,WeatherDisplay:10.37,2013-08-05 21:08:00,
2013-08-05 17:13:00,79.9,48.2,29.94,SSE,158,2.3,2.3,33,0.00,CLR,OVC,0.03,WeatherDisplay:10.37,2013-08-05 21:13:00,
2013-08-05 17:19:00,79.7,48.8,29.94,SSE,158,5.8,5.8,34,0.00,CLR,OVC,0.03,WeatherDisplay:10.37,2013-08-05 21:19:00,
2013-08-05 17:24:00,80.6,48.8,29.94,West,270,4.6,4.6,33,0.00,CLR,OVC,0.03,WeatherDisplay:10.37,2013-08-05 21:24:00,
2013-08-05 17:29:00,82.0,49.2,29.94,NNW,338,3.5,3.5,32,0.00,CLR,OVC,0.03,WeatherDisplay:10.37,2013-08-05 21:29:00,
2013-08-05 17:34:00,81.3,49.4,29.94,SW,225,4.7,4.7,33,0.00,CLR,OVC,0.03,WeatherDisplay:10.37,2013-08-05 21:34:00,
2013-08-05 17:40:00,82.0,50.1,29.94,NW,315,3.5,3.5,33,0.00,CLR,OVC,0.03,WeatherDisplay:10.37,2013-08-05 21:40:00,
2013-08-05 17:45:00,84.2,49.4,29.94,NNW,338,4.6,4.6,30,0.00,CLR,OVC,0.03,WeatherDisplay:10.37,2013-08-05 21:45:00,
2013-08-05 17:50:00,84.6,48.8,29.94,North,360,4.6,4.6,29,0.00,CLR,OVC,0.03,WeatherDisplay:10.37,2013-08-05 21:50:00,
2013-08-05 17:55:00,84.4,48.7,29.94,West,270,2.7,2.7,29,0.00,CLR,OVC,0.03,WeatherDisplay:10.37,2013-08-05 21:55:00,
2013-08-05 18:01:00,82.0,48.4,29.95,West,270,5.8,5.8,31,0.00,CLR,OVC,0.03,WeatherDisplay:10.37,2013-08-05 22:01:00,
2013-08-05 18:06:00,81.7,49.0,29.95,NE,45,3.5,4.3,32,0.00,CLR,OVC,0.03,WeatherDisplay:10.37,2013-08-05 22:06:00,
2013-08-05 18:11:00,81.0,49.2,29.95,West,270,2.3,2.3,33,0.00,CLR,OVC,0.03,WeatherDisplay:10.37,2013-08-05 22:11:00,
2013-08-05 18:16:00,81.0,49.2,29.95,NNW,338,6.9,6.9,33,0.00,CLR,OVC,0.03,WeatherDisplay:10.37,2013-08-05 22:16:00,
2013-08-05 18:21:00,81.1,49.3,29.95,SSW,202,3.5,3.5,33,0.00,CLR,OVC,0.03,WeatherDisplay:10.37,2013-08-05 22:21:00,
2013-08-05 18:26:00,81.0,50.0,29.95,WSW,248,5.8,5.8,34,0.00,CLR,OVC,0.03,WeatherDisplay:10.37,2013-08-05 22:26:00,
2013-08-05 18:31:00,80.2,49.3,29.95,WSW,248,4.6,4.6,34,0.00,CLR,OVC,0.03,WeatherDisplay:10.37,2013-08-05 22:31:00,
2013-08-05 18:37:00,80.8,49.8,29.95,West,270,1.1,0.0,34,0.00,CLR,OVC,0.03,WeatherDisplay:10.37,2013-08-05 22:37:00,
2013-08-05 18:42:00,80.6,49.6,29.95,West,270,6.3,6.3,34,0.00,CLR,OVC,0.03,WeatherDisplay:10.37,2013-08-05 22:42:00,
2013-08-05 18:48:00,79.0,49.8,29.95,NNW,338,4.6,4.6,36,0.00,CLR,OVC,0.03,WeatherDisplay:10.37,2013-08-05 22:48:00,
2013-08-05 18:53:00,79.0,49.8,29.95,WNW,292,1.7,1.7,36,0.00,CLR,OVC,0.03,WeatherDisplay:10.37,2013-08-05 22:53:00,
2013-08-05 18:58:00,78.6,50.1,29.95,WNW,292,3.5,3.5,37,0.00,CLR,OVC,0.03,WeatherDisplay:10.37,2013-08-05 22:58:00,
2013-08-05 19:03:00,77.9,49.5,29.97,WNW,292,5.3,5.3,37,0.00,CLR,OVC,0.03,WeatherDisplay:10.37,2013-08-05 23:03:00,
2013-08-05 19:09:00,77.7,48.6,29.97,WNW,292,4.6,4.6,36,0.00,CLR,OVC,0.03,WeatherDisplay:10.37,2013-08-05 23:09:00,
2013-08-05 19:14:00,77.4,49.1,29.97,SW,225,2.7,2.7,37,0.00,CLR,OVC,0.03,WeatherDisplay:10.37,2013-08-05 23:14:00,
2013-08-05 19:19:00,77.2,49.6,29.97,NW,315,4.6,4.6,38,0.00,CLR,OVC,0.03,WeatherDisplay:10.37,2013-08-05 23:19:00,
2013-08-05 19:24:00,77.0,50.1,29.97,SW,225,1.1,1.1,39,0.00,CLR,OVC,0.03,WeatherDisplay:10.37,2013-08-05 23:24:00,
2013-08-05 19:29:00,76.6,49.8,29.97,WNW,292,4.6,4.6,39,0.00,CLR,OVC,0.03,WeatherDisplay:10.37,2013-08-05 23:29:00,
2013-08-05 19:34:00,76.5,50.4,29.97,NNW,338,3.5,3.5,40,0.00,CLR,OVC,0.03,WeatherDisplay:10.37,2013-08-05 23:34:00,
2013-08-05 19:40:00,76.3,50.2,29.98,West,270,3.2,3.2,40,0.00,CLR,OVC,0.03,WeatherDisplay:10.37,2013-08-05 23:40:00,
2013-08-05 19:45:00,76.1,50.0,29.98,West,270,3.5,3.5,40,0.00,CLR,OVC,0.03,WeatherDisplay:10.37,2013-08-05 23:45:00,
2013-08-05 19:50:00,75.9,49.8,29.98,West,270,4.6,4.6,40,0.00,CLR,OVC,0.03,WeatherDisplay:10.37,2013-08-05 23:50:00,
2013-08-05 19:55:00,75.7,49.7,29.98,ESE,112,1.1,1.1,40,0.00,CLR,OVC,0.03,WeatherDisplay:10.37,2013-08-05 23:55:00,
2013-08-05 20:00:00,75.6,50.2,29.98,West,270,4.6,4.6,41,0.00,CLR,OVC,0.03,WeatherDisplay:10.37,2013-08-06 00:00:00,
2013-08-05 20:05:00,75.2,49.9,29.98,West,270,3.5,3.5,41,0.00,CLR,OVC,0.03,WeatherDisplay:10.37,2013-08-06 00:05:00,
2013-08-05 20:10:00,75.2,50.5,29.98,NW,315,2.3,2.3,42,0.00,CLR,OVC,0.03,WeatherDisplay:10.37,2013-08-06 00:10:00,
2013-08-05 20:16:00,74.8,50.2,29.99,West,270,2.3,2.3,42,0.00,CLR,OVC,0.03,WeatherDisplay:10.37,2013-08-06 00:16:00,
2013-08-05 20:38:00,73.0,56.4,29.99,SSE,158,2.7,0.0,56,0.00,CLR,OVC,0.03,WeatherDisplay:10.37,2013-08-06 00:38:00,
2013-08-05 20:43:00,72.9,57.3,29.99,SSE,158,3.5,3.5,58,0.00,CLR,OVC,0.03,WeatherDisplay:10.37,2013-08-06 00:43:00,
2013-08-05 20:48:00,72.3,58.5,30.00,ESE,112,4.6,4.6,62,0.00,CLR,OVC,0.03,WeatherDisplay:10.37,2013-08-06 00:48:00,
2013-08-05 20:54:00,72.3,58.5,30.00,SSE,158,4.7,4.7,62,0.00,CLR,OVC,0.03,WeatherDisplay:10.37,2013-08-06 00:54:00,
2013-08-05 20:59:00,72.0,58.7,30.00,South,180,5.8,5.8,63,0.00,CLR,OVC,0.03,WeatherDisplay:10.37,2013-08-06 00:59:00,
2013-08-05 21:04:00,71.8,58.5,30.00,ESE,112,3.5,3.5,63,0.00,CLR,OVC,0.03,WeatherDisplay:10.37,2013-08-06 01:04:00,
2013-08-05 21:09:00,71.8,58.5,30.00,SSE,158,4.6,4.6,63,0.00,CLR,OVC,0.03,WeatherDisplay:10.37,2013-08-06 01:09:00,
2013-08-05 21:14:00,71.4,58.1,30.00,South,180,5.8,5.8,63,0.00,CLR,OVC,0.03,WeatherDisplay:10.37,2013-08-06 01:14:00,
2013-08-05 21:19:00,71.4,58.1,30.00,South,180,5.8,5.8,63,0.00,CLR,OVC,0.03,WeatherDisplay:10.37,2013-08-06 01:19:00,
2013-08-05 21:25:00,71.2,58.4,30.00,South,180,5.8,5.8,64,0.00,CLR,OVC,0.03,WeatherDisplay:10.37,2013-08-06 01:25:00,
2013-08-05 21:30:00,71.1,58.3,30.00,SSE,158,4.6,4.6,64,0.00,CLR,OVC,0.03,WeatherDisplay:10.37,2013-08-06 01:30:00,
2013-08-05 21:35:00,70.9,58.1,30.00,SE,135,5.8,5.8,64,0.00,CLR,OVC,0.03,WeatherDisplay:10.37,2013-08-06 01:35:00,
2013-08-05 21:41:00,70.9,58.5,30.00,SSE,158,3.7,3.7,65,0.00,CLR,OVC,0.03,WeatherDisplay:10.37,2013-08-06 01:41:00,
2013-08-05 21:46:00,70.7,58.4,30.00,South,180,5.8,5.8,65,0.00,CLR,OVC,0.03,WeatherDisplay:10.37,2013-08-06 01:46:00,
2013-08-05 21:51:00,70.7,58.4,30.00,South,180,5.8,5.8,65,0.00,CLR,OVC,0.03,WeatherDisplay:10.37,2013-08-06 01:51:00,
2013-08-05 21:56:00,70.7,58.4,30.00,SSE,158,4.6,4.6,65,0.00,CLR,OVC,0.03,WeatherDisplay:10.37,2013-08-06 01:56:00,
2013-08-05 22:01:00,70.7,58.8,29.99,SSE,158,4.7,4.7,66,0.00,CLR,OVC,0.03,WeatherDisplay:10.37,2013-08-06 02:01:00,
2013-08-05 22:07:00,70.7,58.8,29.99,SE,135,3.5,3.5,66,0.00,CLR,OVC,0.03,WeatherDisplay:10.37,2013-08-06 02:07:00,
2013-08-05 22:13:00,70.5,58.6,29.99,South,180,3.5,3.5,66,0.00,CLR,OVC,0.03,WeatherDisplay:10.37,2013-08-06 02:13:00,
2013-08-05 22:18:00,70.5,58.6,29.99,South,180,2.3,2.3,66,0.00,CLR,OVC,0.03,WeatherDisplay:10.37,2013-08-06 02:18:00,
2013-08-05 22:23:00,70.5,58.6,29.99,ESE,112,3.5,3.5,66,0.00,CLR,OVC,0.03,WeatherDisplay:10.37,2013-08-06 02:23:00,
2013-08-05 22:28:00,70.5,59.0,29.99,SSW,202,3.5,3.5,67,0.00,CLR,OVC,0.03,WeatherDisplay:10.37,2013-08-06 02:28:00,
2013-08-05 22:33:00,70.5,59.0,29.99,ESE,112,1.7,1.7,67,0.00,CLR,OVC,0.03,WeatherDisplay:10.37,2013-08-06 02:33:00,
2013-08-05 22:39:00,70.5,58.6,30.00,SSE,158,1.7,1.7,66,0.00,CLR,OVC,0.03,WeatherDisplay:10.37,2013-08-06 02:39:00,
2013-08-05 22:44:00,70.5,58.6,30.00,SSE,158,3.5,3.5,66,0.00,CLR,OVC,0.03,WeatherDisplay:10.37,2013-08-06 02:44:00,
2013-08-05 22:49:00,70.5,58.6,29.99,SSW,202,3.7,3.7,66,0.00,CLR,OVC,0.03,WeatherDisplay:10.37,2013-08-06 02:49:00,
2013-08-05 22:54:00,70.5,59.0,29.99,SE,135,1.1,1.4,67,0.00,CLR,OVC,0.03,WeatherDisplay:10.37,2013-08-06 02:54:00,
2013-08-05 22:59:00,70.5,59.0,29.99,SW,225,2.3,2.3,67,0.00,CLR,OVC,0.03,WeatherDisplay:10.37,2013-08-06 02:59:00,
2013-08-05 23:06:00,70.3,58.8,29.99,SSE,158,2.3,2.3,67,0.00,CLR,OVC,0.03,WeatherDisplay:10.37,2013-08-06 03:06:00,
2013-08-05 23:11:00,70.3,58.8,29.99,SE,135,1.1,1.1,67,0.00,CLR,OVC,0.03,WeatherDisplay:10.37,2013-08-06 03:11:00,
2013-08-05 23:16:00,70.3,58.8,29.99,South,180,3.5,3.5,67,0.00,CLR,OVC,0.03,WeatherDisplay:10.37,2013-08-06 03:16:00,
2013-08-05 23:21:00,70.5,58.6,29.99,South,180,2.3,2.3,66,0.00,CLR,OVC,0.03,WeatherDisplay:10.37,2013-08-06 03:21:00,
2013-08-05 23:26:00,70.5,58.6,29.99,SE,135,1.1,1.1,66,0.00,CLR,OVC,0.03,WeatherDisplay:10.37,2013-08-06 03:26:00,
2013-08-05 23:31:00,70.5,58.6,29.99,SW,225,2.3,2.3,66,0.00,CLR,OVC,0.03,WeatherDisplay:10.37,2013-08-06 03:31:00,
2013-08-05 23:37:00,70.5,59.0,29.99,South,180,2.3,2.3,67,0.00,CLR,OVC,0.03,WeatherDisplay:10.37,2013-08-06 03:37:00,
2013-08-05 23:42:00,70.3,58.8,29.99,SSE,158,2.2,2.2,67,0.00,CLR,OVC,0.03,WeatherDisplay:10.37,2013-08-06 03:42:00,
2013-08-05 23:47:00,70.3,58.8,29.99,SE,135,2.3,2.3,67,0.00,CLR,OVC,0.03,WeatherDisplay:10.37,2013-08-06 03:47:00,
2013-08-05 23:52:00,70.3,58.8,29.99,West,270,1.1,0.0,67,0.00,CLR,OVC,0.03,WeatherDisplay:10.37,2013-08-06 03:52:00,
2013-08-05 23:58:00,70.3,58.8,29.99,SSW,202,1.1,1.1,67,0.00,CLR,OVC,0.03,WeatherDisplay:10.37,2013-08-06 03:58:00,